createdAt,value
2019-03-29T00:00:02.819Z,6.20
2019-03-29T00:02:51.196Z,6.97
2019-03-29T00:05:41.634Z,5.90
2019-03-29T00:08:30.189Z,6.67
2019-03-29T00:11:23.456Z,6.57
2019-03-29T00:14:14.274Z,8.63
2019-03-29T00:17:07.009Z,7.63
2019-03-29T00:20:06.166Z,5.83
2019-03-29T00:22:57.417Z,6.03
2019-03-29T00:25:48.944Z,7.73
2019-03-29T00:28:57.671Z,6.77
2019-03-29T00:31:52.859Z,9.17
2019-03-29T00:34:48.595Z,6.63
2019-03-29T00:37:52.845Z,7.13
2019-03-29T00:40:44.646Z,8.27
2019-03-29T00:43:34.960Z,7.47
2019-03-29T00:46:48.560Z,9.03
2019-03-29T00:49:37.537Z,7.27
2019-03-29T00:52:36.792Z,8.37
2019-03-29T00:55:35.528Z,10.37
2019-03-29T00:58:44.044Z,8.97
2019-03-29T01:01:33.508Z,9.60
2019-03-29T01:04:41.617Z,11.03
2019-03-29T01:07:32.622Z,12.27
2019-03-29T01:10:24.577Z,8.40
2019-03-29T01:13:14.352Z,8.63
2019-03-29T01:16:05.983Z,8.27
2019-03-29T01:19:22.171Z,9.77
2019-03-29T01:22:15.320Z,8.83
2019-03-29T01:25:08.223Z,9.57
2019-03-29T01:28:00.852Z,9.97
2019-03-29T01:30:56.853Z,9.03
2019-03-29T01:33:57.282Z,10.97
2019-03-29T01:36:47.890Z,9.40
2019-03-29T01:39:39.317Z,9.53
2019-03-29T01:42:49.258Z,11.10
2019-03-29T01:46:08.215Z,11.10
2019-03-29T01:49:00.170Z,11.97
2019-03-29T01:52:11.868Z,12.53
2019-03-29T01:55:08.388Z,12.43
2019-03-29T01:58:13.645Z,11.90
2019-03-29T02:01:11.602Z,12.70
2019-03-29T02:04:08.191Z,13.80
2019-03-29T02:07:00.284Z,14.73
2019-03-29T02:10:05.330Z,13.77
2019-03-29T02:12:59.201Z,14.33
2019-03-29T02:15:55.468Z,13.23
2019-03-29T02:18:50.116Z,13.10
2019-03-29T02:22:09.129Z,13.73
2019-03-29T02:25:04.319Z,14.27
2019-03-29T02:28:05.328Z,13.90
2019-03-29T02:31:00.153Z,13.80
2019-03-29T02:34:00.252Z,14.50
2019-03-29T02:37:01.891Z,14.17
2019-03-29T02:39:58.097Z,13.67
2019-03-29T02:42:52.042Z,13.57
2019-03-29T02:45:48.876Z,13.47
2019-03-29T02:48:49.505Z,14.63
2019-03-29T02:51:45.037Z,13.43
2019-03-29T02:54:58.808Z,15.33
2019-03-29T02:57:55.725Z,16.07
2019-03-29T03:00:45.818Z,16.20
2019-03-29T03:03:39.075Z,15.73
2019-03-29T03:06:30.172Z,15.63
2019-03-29T03:09:35.937Z,16.03
2019-03-29T03:12:39.742Z,14.73
2019-03-29T03:15:28.005Z,15.67
2019-03-29T03:18:16.104Z,16.03
2019-03-29T03:21:04.868Z,16.47
2019-03-29T03:23:53.757Z,17.07
2019-03-29T03:26:45.359Z,17.60
2019-03-29T03:29:34.836Z,15.87
2019-03-29T03:32:23.346Z,15.10
2019-03-29T03:35:12.299Z,14.50
2019-03-29T03:38:08.400Z,14.03
2019-03-29T03:41:01.205Z,16.07
2019-03-29T03:43:59.311Z,16.00
2019-03-29T03:46:52.890Z,16.60
2019-03-29T03:49:46.767Z,14.80
2019-03-29T03:52:37.048Z,17.37
2019-03-29T03:55:53.877Z,16.00
2019-03-29T03:58:43.860Z,15.17
2019-03-29T04:01:36.464Z,16.90
2019-03-29T04:04:28.012Z,15.87
2019-03-29T04:07:20.862Z,16.37
2019-03-29T04:10:37.045Z,15.80
2019-03-29T04:13:38.106Z,17.60
2019-03-29T04:16:29.444Z,17.87
2019-03-29T04:19:38.250Z,16.60
2019-03-29T04:22:32.353Z,17.53
2019-03-29T04:25:41.051Z,19.30
2019-03-29T04:28:35.145Z,17.07
2019-03-29T04:31:26.019Z,19.07
2019-03-29T04:34:23.539Z,20.83
2019-03-29T04:37:22.606Z,20.90
2019-03-29T04:40:14.536Z,20.17
2019-03-29T04:43:15.677Z,21.37
2019-03-29T04:46:13.554Z,20.00
2019-03-29T04:49:04.154Z,20.53
2019-03-29T04:51:56.200Z,21.63
2019-03-29T04:54:52.931Z,20.67
2019-03-29T04:57:42.507Z,22.37
2019-03-29T05:00:36.978Z,22.10
2019-03-29T05:03:25.873Z,20.97
2019-03-29T05:06:21.037Z,20.87
2019-03-29T05:09:14.669Z,22.20
2019-03-29T05:12:24.383Z,21.43
2019-03-29T05:15:15.676Z,21.27
2019-03-29T05:18:04.785Z,20.80
2019-03-29T05:20:57.003Z,21.63
2019-03-29T05:23:48.320Z,20.33
2019-03-29T05:26:54.181Z,21.83
2019-03-29T05:29:47.641Z,22.43
2019-03-29T05:32:40.204Z,21.73
2019-03-29T05:35:36.035Z,23.37
2019-03-29T05:38:30.093Z,23.07
2019-03-29T05:41:25.288Z,22.37
2019-03-29T05:44:24.294Z,22.23
2019-03-29T05:47:19.312Z,24.60
2019-03-29T05:50:18.675Z,21.57
2019-03-29T05:53:09.216Z,21.17
2019-03-29T05:56:07.994Z,22.13
2019-03-29T05:59:00.955Z,23.00
2019-03-29T06:01:53.164Z,21.33
2019-03-29T06:04:51.968Z,22.93
2019-03-29T06:07:55.184Z,24.03
2019-03-29T06:10:56.236Z,23.23
2019-03-29T06:13:51.249Z,22.40
2019-03-29T06:17:05.676Z,21.50
2019-03-29T06:20:03.441Z,22.83
2019-03-29T06:22:54.352Z,25.17
2019-03-29T06:26:07.996Z,21.37
2019-03-29T06:29:06.279Z,21.57
2019-03-29T06:32:21.254Z,22.20
2019-03-29T06:38:58.890Z,20.93
2019-03-29T06:41:56.344Z,22.77
2019-03-29T06:44:58.786Z,21.33
2019-03-29T06:47:58.541Z,22.40
2019-03-29T06:51:24.149Z,21.33
2019-03-29T06:54:27.751Z,20.47
2019-03-29T06:57:20.907Z,21.10
2019-03-29T07:00:07.921Z,21.00
2019-03-29T07:02:58.829Z,20.40
2019-03-29T07:05:49.447Z,23.70
2019-03-29T07:08:43.112Z,19.17
2019-03-29T07:11:43.538Z,21.90
2019-03-29T07:14:31.909Z,20.97
2019-03-29T07:17:20.211Z,18.77
2019-03-29T07:20:08.490Z,20.10
2019-03-29T07:22:56.421Z,19.33
2019-03-29T07:25:44.364Z,20.47
2019-03-29T07:28:32.303Z,19.47
2019-03-29T07:31:20.331Z,23.27
2019-03-29T07:34:08.520Z,20.47
2019-03-29T07:36:56.773Z,21.30
2019-03-29T07:39:44.793Z,19.63
2019-03-29T07:42:32.715Z,19.53
2019-03-29T07:45:20.670Z,18.20
2019-03-29T07:48:35.342Z,19.47
2019-03-29T07:51:24.081Z,20.20
2019-03-29T07:54:12.414Z,21.33
2019-03-29T07:57:00.411Z,18.20
2019-03-29T07:59:48.309Z,18.73
2019-03-29T08:02:37.129Z,18.40
2019-03-29T08:05:25.402Z,20.27
2019-03-29T08:08:23.910Z,18.67
2019-03-29T08:11:03.371Z,18.43
2019-03-29T08:13:51.608Z,16.73
2019-03-29T08:16:40.314Z,18.30
2019-03-29T08:19:28.265Z,16.57
2019-03-29T08:22:16.747Z,15.50
2019-03-29T08:25:05.468Z,15.30
2019-03-29T08:27:53.483Z,15.90
2019-03-29T08:30:41.770Z,15.83
2019-03-29T08:33:29.874Z,15.47
2019-03-29T08:36:18.144Z,15.37
2019-03-29T08:39:10.032Z,14.97
2019-03-29T08:42:00.471Z,14.17
2019-03-29T08:44:46.609Z,14.03
2019-03-29T08:47:34.458Z,14.13
2019-03-29T08:50:22.565Z,13.70
2019-03-29T08:53:10.557Z,14.43
2019-03-29T08:55:59.008Z,12.00
2019-03-29T08:58:47.402Z,12.50
2019-03-29T09:01:35.579Z,11.60
2019-03-29T09:04:23.580Z,10.37
2019-03-29T09:07:12.216Z,9.77
2019-03-29T09:10:00.553Z,10.10
2019-03-29T09:12:48.914Z,10.60
2019-03-29T09:15:37.110Z,11.27
2019-03-29T09:18:26.089Z,11.27
2019-03-29T09:21:14.459Z,11.47
2019-03-29T09:24:02.712Z,11.73
2019-03-29T09:26:50.801Z,11.83
2019-03-29T09:29:39.035Z,10.77
2019-03-29T09:32:27.081Z,9.73
2019-03-29T09:35:15.399Z,8.90
2019-03-29T09:38:03.833Z,9.43
2019-03-29T09:40:58.801Z,10.33
2019-03-29T09:43:41.300Z,8.30
2019-03-29T09:46:29.425Z,8.83
2019-03-29T09:49:17.158Z,9.07
2019-03-29T09:52:05.514Z,9.17
2019-03-29T09:54:54.155Z,8.50
2019-03-29T09:57:42.514Z,8.90
2019-03-29T10:00:30.135Z,8.07
2019-03-29T10:03:17.825Z,7.47
2019-03-29T10:06:05.783Z,7.93
2019-03-29T10:08:53.779Z,7.77
2019-03-29T10:11:41.766Z,7.03
2019-03-29T10:14:29.474Z,5.90
2019-03-29T10:17:18.457Z,6.30
2019-03-29T10:20:07.063Z,6.70
2019-03-29T10:22:55.353Z,6.70
2019-03-29T10:25:43.296Z,6.90
2019-03-29T10:28:31.576Z,5.67
2019-03-29T10:31:31.481Z,5.73
2019-03-29T10:34:10.065Z,6.97
2019-03-29T10:36:58.073Z,6.03
2019-03-29T10:39:46.559Z,6.10
2019-03-29T10:42:34.829Z,6.70
2019-03-29T10:45:23.176Z,6.97
2019-03-29T10:48:11.265Z,6.10
2019-03-29T10:50:59.612Z,7.23
2019-03-29T10:53:47.977Z,5.90
2019-03-29T10:56:36.505Z,6.43
2019-03-29T10:59:27.658Z,6.83
2019-03-29T11:02:14.732Z,7.87
2019-03-29T11:05:02.742Z,7.23
2019-03-29T11:07:51.377Z,6.90
2019-03-29T11:10:39.573Z,6.57
2019-03-29T11:13:27.553Z,7.50
2019-03-29T11:16:26.162Z,6.60
2019-03-29T11:19:15.228Z,6.60
2019-03-29T11:22:16.791Z,6.60
2019-03-29T11:25:12.708Z,7.20
2019-03-29T11:28:04.306Z,7.47
2019-03-29T11:31:16.039Z,6.47
2019-03-29T11:34:20.943Z,6.90
2019-03-29T11:37:17.807Z,6.47
2019-03-29T11:40:18.346Z,6.53
2019-03-29T11:43:10.490Z,7.13
2019-03-29T11:46:02.416Z,6.37
2019-03-29T11:48:50.399Z,7.00
2019-03-29T11:51:39.673Z,6.40
2019-03-29T11:54:28.174Z,7.50
2019-03-29T11:57:16.359Z,6.50
2019-03-29T12:00:05.594Z,7.30
2019-03-29T12:03:02.348Z,7.00
2019-03-29T12:05:55.082Z,7.77
2019-03-29T12:08:49.563Z,7.33
2019-03-29T12:11:40.570Z,8.30
2019-03-29T12:14:32.083Z,7.47
2019-03-29T12:17:21.178Z,8.10
2019-03-29T12:20:09.290Z,7.80
2019-03-29T12:23:16.888Z,8.10
2019-03-29T12:26:15.852Z,7.27
2019-03-29T12:29:12.428Z,8.07
2019-03-29T12:32:05.378Z,7.23
2019-03-29T12:34:56.919Z,7.73
2019-03-29T12:37:44.974Z,7.53
2019-03-29T12:40:33.441Z,8.27
2019-03-29T12:43:21.662Z,8.03
2019-03-29T12:46:09.816Z,9.50
2019-03-29T12:48:57.883Z,8.73
2019-03-29T12:51:46.856Z,8.77
2019-03-29T12:54:35.563Z,9.93
2019-03-29T12:57:23.625Z,9.57
2019-03-29T13:00:17.420Z,9.07
2019-03-29T13:03:13.672Z,8.10
2019-03-29T13:06:03.762Z,9.37
2019-03-29T13:09:12.178Z,9.50
2019-03-29T13:12:06.547Z,8.53
2019-03-29T13:14:54.751Z,8.67
2019-03-29T13:17:44.491Z,9.20
2019-03-29T13:20:32.473Z,9.30
2019-03-29T13:23:20.468Z,9.37
2019-03-29T13:26:09.328Z,9.70
2019-03-29T13:29:04.961Z,9.27
2019-03-29T13:31:53.589Z,8.87
2019-03-29T13:34:43.410Z,9.27
2019-03-29T13:37:34.054Z,8.70
2019-03-29T13:40:24.330Z,10.07
2019-03-29T13:43:12.727Z,9.57
2019-03-29T13:46:01.029Z,9.43
2019-03-29T13:48:48.871Z,9.07
2019-03-29T13:51:59.616Z,9.80
2019-03-29T13:54:51.615Z,9.77
2019-03-29T13:57:42.012Z,10.10
2019-03-29T14:00:34.255Z,10.30
2019-03-29T14:03:26.045Z,8.97
2019-03-29T14:06:21.996Z,9.90
2019-03-29T14:09:12.300Z,10.17
2019-03-29T14:12:01.760Z,10.10
2019-03-29T14:14:56.251Z,10.60
2019-03-29T14:17:51.138Z,10.77
2019-03-29T14:20:44.416Z,10.03
2019-03-29T14:23:34.592Z,9.90
2019-03-29T14:27:07.365Z,9.73
2019-03-29T14:30:04.735Z,9.90
2019-03-29T14:32:59.645Z,10.33
2019-03-29T14:35:54.033Z,10.07
2019-03-29T14:38:42.982Z,9.77
2019-03-29T14:41:46.314Z,10.70
2019-03-29T14:44:51.771Z,9.50
2019-03-29T14:47:56.869Z,11.63
2019-03-29T14:50:47.493Z,10.90
2019-03-29T14:54:10.281Z,9.40
2019-03-29T14:56:56.629Z,10.20
2019-03-29T14:59:52.126Z,10.60
2019-03-29T15:02:40.185Z,9.77
2019-03-29T15:05:28.157Z,9.97
2019-03-29T15:08:16.174Z,10.10
2019-03-29T15:11:04.428Z,11.07
2019-03-29T15:13:52.449Z,10.13
2019-03-29T15:16:40.796Z,10.40
2019-03-29T15:19:29.163Z,10.30
2019-03-29T15:22:20.478Z,10.17
2019-03-29T15:25:11.374Z,9.47
2019-03-29T15:28:02.749Z,9.43
2019-03-29T15:30:52.334Z,9.43
2019-03-29T15:33:40.038Z,9.73
2019-03-29T15:36:28.414Z,8.93
2019-03-29T15:39:16.637Z,10.03
2019-03-29T15:42:05.766Z,9.23
2019-03-29T15:44:54.416Z,9.37
2019-03-29T15:47:42.960Z,9.20
2019-03-29T15:50:31.654Z,9.70
2019-03-29T15:53:20.432Z,10.57
2019-03-29T15:56:08.634Z,9.37
2019-03-29T15:58:57.050Z,9.00
2019-03-29T16:01:45.453Z,9.30
2019-03-29T16:04:33.567Z,9.47
2019-03-29T16:07:41.786Z,9.77
2019-03-29T16:10:29.713Z,9.57
2019-03-29T16:13:55.521Z,8.70
2019-03-29T16:16:45.983Z,9.13
2019-03-29T16:19:33.471Z,9.33
2019-03-29T16:22:21.062Z,8.83
2019-03-29T16:25:11.753Z,9.40
2019-03-29T16:28:00.224Z,9.83
2019-03-29T16:30:48.152Z,8.93
2019-03-29T16:33:45.298Z,10.67
2019-03-29T16:36:38.995Z,9.63
2019-03-29T16:39:50.482Z,10.23
2019-03-29T16:42:44.264Z,10.43
2019-03-29T16:45:32.865Z,9.33
2019-03-29T16:48:21.343Z,9.13
2019-03-29T16:51:09.440Z,9.90
2019-03-29T16:54:01.479Z,9.70
2019-03-29T16:56:49.871Z,10.60
2019-03-29T16:59:37.968Z,8.00
2019-03-29T17:02:26.965Z,9.07
2019-03-29T17:05:15.246Z,8.90
2019-03-29T17:08:05.308Z,9.23
2019-03-29T17:10:52.987Z,9.23
2019-03-29T17:13:41.026Z,9.53
2019-03-29T17:16:30.481Z,8.97
2019-03-29T17:19:18.769Z,8.67
2019-03-29T17:22:07.342Z,9.53
2019-03-29T17:24:57.131Z,9.00
2019-03-29T17:27:44.857Z,10.87
2019-03-29T17:30:39.229Z,9.67
2019-03-29T17:33:27.703Z,9.20
2019-03-29T17:36:15.947Z,11.13
2019-03-29T17:39:05.079Z,9.30
2019-03-29T17:41:53.085Z,10.43
2019-03-29T17:44:41.216Z,10.70
2019-03-29T17:47:29.179Z,9.57
2019-03-29T17:50:16.918Z,12.33
2019-03-29T17:53:05.765Z,10.13
2019-03-29T17:55:53.667Z,10.57
2019-03-29T17:58:41.892Z,11.63
2019-03-29T18:01:30.174Z,11.90
2019-03-29T18:04:18.409Z,11.13
2019-03-29T18:07:07.240Z,11.27
2019-03-29T18:09:55.684Z,12.03
2019-03-29T18:12:44.209Z,12.63
2019-03-29T18:15:32.266Z,12.77
2019-03-29T18:18:20.216Z,13.27
2019-03-29T18:21:08.478Z,13.07
2019-03-29T18:23:56.619Z,12.33
2019-03-29T18:26:44.529Z,12.33
2019-03-29T18:29:32.469Z,13.83
2019-03-29T18:32:20.582Z,12.03
2019-03-29T18:35:08.764Z,12.40
2019-03-29T18:37:57.315Z,18.27
2019-03-29T18:40:45.228Z,13.20
2019-03-29T18:43:33.342Z,14.57
2019-03-29T18:46:21.237Z,13.27
2019-03-29T18:49:09.473Z,15.33
2019-03-29T18:51:57.295Z,14.07
2019-03-29T18:54:44.997Z,11.97
2019-03-29T18:57:33.010Z,12.07
2019-03-29T19:00:30.162Z,12.27
2019-03-29T19:03:19.389Z,14.30
2019-03-29T19:06:07.483Z,13.80
2019-03-29T19:08:55.663Z,14.43
2019-03-29T19:11:43.776Z,11.63
2019-03-29T19:14:31.616Z,16.93
2019-03-29T19:17:19.560Z,15.27
2019-03-29T19:20:10.189Z,14.50
2019-03-29T19:22:57.613Z,16.90
2019-03-29T19:25:45.788Z,14.77
2019-03-29T19:28:34.131Z,17.00
2019-03-29T19:31:21.927Z,17.00
2019-03-29T19:34:10.271Z,17.50
2019-03-29T19:37:01.446Z,14.67
2019-03-29T19:39:48.593Z,15.27
2019-03-29T19:42:36.653Z,14.10
2019-03-29T19:45:25.316Z,16.13
2019-03-29T19:48:13.546Z,18.13
2019-03-29T19:51:01.930Z,15.27
2019-03-29T19:53:51.369Z,19.50
2019-03-29T19:56:39.365Z,15.00
2019-03-29T19:59:27.028Z,15.67
2019-03-29T20:02:15.308Z,14.53
2019-03-29T20:05:03.301Z,15.67
2019-03-29T20:07:51.686Z,15.83
2019-03-29T20:10:40.012Z,18.57
2019-03-29T20:13:28.452Z,14.60
2019-03-29T20:16:16.870Z,16.47
2019-03-29T20:19:05.228Z,16.63
2019-03-29T20:21:55.266Z,14.17
2019-03-29T20:24:44.003Z,15.97
2019-03-29T20:27:32.527Z,16.00
2019-03-29T20:30:20.903Z,17.23
2019-03-29T20:33:08.808Z,19.87
2019-03-29T20:35:57.244Z,17.33
2019-03-29T20:38:45.187Z,16.57
2019-03-29T20:41:33.082Z,17.67
2019-03-29T20:44:21.003Z,17.90
2019-03-29T20:47:08.573Z,18.97
2019-03-29T20:49:58.428Z,18.13
2019-03-29T20:53:04.058Z,19.03
2019-03-29T20:55:58.335Z,19.90
2019-03-29T20:58:45.996Z,17.30
2019-03-29T21:01:34.148Z,17.93
2019-03-29T21:04:22.339Z,17.70
2019-03-29T21:07:10.043Z,25.30
2019-03-29T21:09:58.013Z,21.93
2019-03-29T21:12:46.218Z,16.80
2019-03-29T21:15:34.522Z,19.67
2019-03-29T21:18:22.783Z,17.83
2019-03-29T21:21:10.743Z,18.73
2019-03-29T21:23:58.933Z,20.57
2019-03-29T21:26:47.633Z,18.70
2019-03-29T21:29:35.757Z,15.23
2019-03-29T21:32:24.025Z,18.07
2019-03-29T21:35:12.312Z,19.10
2019-03-29T21:38:00.682Z,18.90
2019-03-29T21:40:49.205Z,19.83
2019-03-29T21:43:37.259Z,22.70
2019-03-29T21:46:25.590Z,22.03
2019-03-29T21:49:13.574Z,21.70
2019-03-29T21:52:01.521Z,21.27
2019-03-29T21:54:49.565Z,18.60
2019-03-29T21:57:37.998Z,22.03
2019-03-29T22:00:26.427Z,19.37
2019-03-29T22:03:14.494Z,20.97
2019-03-29T22:06:02.615Z,20.77
2019-03-29T22:08:50.765Z,23.03
2019-03-29T22:11:39.051Z,25.10
2019-03-29T22:14:26.822Z,30.17
2019-03-29T22:17:14.595Z,21.87
2019-03-29T22:20:02.508Z,21.00
2019-03-29T22:22:50.660Z,23.33
2019-03-29T22:25:38.789Z,25.63
2019-03-29T22:28:27.049Z,25.27
2019-03-29T22:31:15.628Z,21.43
2019-03-29T22:34:03.851Z,23.57
2019-03-29T22:36:51.816Z,28.90
2019-03-29T22:39:39.728Z,26.00
2019-03-29T22:42:27.687Z,22.37
2019-03-29T22:45:15.665Z,28.13
2019-03-29T22:48:04.058Z,28.13
2019-03-29T22:50:52.464Z,34.87
2019-03-29T22:53:40.721Z,36.63
2019-03-29T22:56:29.133Z,34.10
2019-03-29T22:59:17.310Z,34.20
2019-03-29T23:02:05.929Z,32.03
2019-03-29T23:04:54.181Z,27.73
2019-03-29T23:07:42.442Z,37.23
2019-03-29T23:10:30.884Z,33.87
2019-03-29T23:13:19.054Z,33.57
2019-03-29T23:16:07.086Z,37.20
2019-03-29T23:19:05.782Z,34.33
2019-03-29T23:21:44.361Z,35.23
2019-03-29T23:24:32.120Z,29.63
2019-03-29T23:27:20.307Z,30.20
2019-03-29T23:30:09.116Z,27.70
2019-03-29T23:32:57.441Z,27.03
2019-03-29T23:35:45.904Z,26.10
2019-03-29T23:38:34.025Z,21.90
2019-03-29T23:41:22.225Z,24.63
2019-03-29T23:44:10.536Z,27.87
2019-03-29T23:46:58.377Z,36.80
2019-03-29T23:49:45.988Z,34.43
2019-03-29T23:52:33.856Z,30.60
2019-03-29T23:55:21.452Z,30.77
2019-03-29T23:58:09.095Z,28.80
